Portada
METAR-TAF:

METAR-TAF

Aeroports :

Bonaire, Antilles Neerlandeses

latitud: 12-09N, longitud: 068-17W, altitud: 6 m

Observació

L'informe es va fer fa 48 minuts, a les 13:55 UTC
Vent 18 kt del Est, variant entre Est/Nord-Est i Sud-Est
Temperatura 31°C
Humitat 71%
Pressió 1014 hPa
Visibilitat 10 km o més
Núvols disperses a una alçada de 2000 ft

METAR: TNCB 261355Z 10018KT 070V140 9999 SCT020 31/25 Q1014

Hora: 10:43 (14:43 UTC)

Pronòstic

L'informe es va fer fa 2 hores i 22 minuts, a les 12:21 UTC
Pronòstic vàlid del 26 a les 12 UTC al 27 a les 18 UTC
Vent 15 kt del Est
Visibilitat 10 km o més
Núvols disperses a una alçada de 2000 ft
Probabilitat 40% :
Temporalment
l' 27 a les 06 UTC al 27 a les 18 UTC
Vent 17 kt del Est amb ràfegues de 27 kt
Visibilitat: 4500 m
Núvols disperses a una alçada de 1500 ft, Cumulonimbus.
xàfecs de pluja, tempesta, pluja

TAF: TNCB 261221Z 2612/2718 08015KT 9999 SCT020 PROB40 TEMPO 2706/2718 09017G27KT 4500 SHRA TSRA SCT015CB

Observacions i pronòstics meteorològics de més de 4000 aeroports (METAR i TAF).

Les estacions disponibles són els punts grocs i vermells al mapa.

Posi el ratolí al punt desitjat per veure el nom de l'estació.

Feu clic per veure les observacions i els pronòstics meteorològics.

Per canviar el mapa: feu clic els botons verds amb una creu de color negre per apropar; al botó verd amb un guió per allunyar la imatge; o en les fletxes verdes per a mapes adjacents.


METAR-TAF: